Time;durP1;ratioP1;P1;durP2;ratioP2;P2;SDS_P1;SDS_P2;PMS_P1;PMS_P2;Temp;Humidity;BMP_temperature;BMP_pressure;BME280_temperature;BME280_humidity;BME280_pressure;Samples;Min_cycle;Max_cycle;Signal;HPM_P1;HPM_P2
2023/08/19 00:00:54;;;;;;;;;;;21.90;49.40;;;18.29;92.68;95467.34;4994222;28;19937;-44
2023/08/19 00:03:20;;;;;;;;;;;21.90;49.50;;;18.29;92.90;95460.06;4993968;28;19909;-45
2023/08/19 00:05:46;;;;;;;;;;;21.90;49.50;;;18.27;92.57;95463.09;4993080;28;19914;-44
2023/08/19 00:08:12;;;;;;;;;;;21.90;49.60;;;18.22;92.95;95462.44;5009160;28;19917;-44
2023/08/19 00:10:41;;;;;;;;;;;21.90;49.60;;;18.22;92.46;95473.22;4990235;28;19983;-49
2023/08/19 00:13:07;;;;;;;;;;;21.90;49.70;;;18.14;93.05;95465.91;4988346;28;19975;-47
2023/08/19 00:15:34;;;;;;;;;;;21.80;49.70;;;18.12;93.38;95468.13;4993620;28;19913;-44
2023/08/19 00:18:01;;;;;;;;;;;21.80;49.80;;;18.08;93.67;95464.47;4992828;28;20388;-49
2023/08/19 00:20:28;;;;;;;;;;;21.80;49.80;;;18.07;93.50;95463.69;4993975;28;19952;-44
2023/08/19 00:22:58;;;;;;;;;;;21.80;50.60;;;18.06;94.19;95461.31;4992821;28;19955;-44
2023/08/19 00:25:27;;;;;;;;;;;21.70;50.00;;;18.02;93.64;95455.75;4992092;28;20356;-43
2023/08/19 00:27:53;;;;;;;;;;;21.70;50.10;;;17.96;93.45;95457.81;4993647;28;19963;-44
2023/08/19 00:30:20;;;;;;;;;;;21.70;50.20;;;17.91;94.42;95467.94;4992479;28;19913;-43
2023/08/19 00:32:47;;;;;;;;;;;21.60;50.20;;;17.84;94.23;95460.31;4993519;28;20291;-43
2023/08/19 00:35:14;;;;;;;;;;;21.60;50.40;;;17.81;94.70;95460.94;4992263;28;20004;-45
2023/08/19 00:37:39;;;;;;;;;;;21.60;50.40;;;17.77;94.32;95458.09;4993463;28;19909;-44
2023/08/19 00:40:10;;;;;;;;;;;21.50;50.40;;;17.69;95.14;95464.19;4993500;28;20379;-46
2023/08/19 00:42:36;;;;;;;;;;;21.50;50.50;;;17.63;95.76;95464.66;4992302;28;20360;-44
2023/08/19 00:45:02;;;;;;;;;;;21.50;50.60;;;17.65;95.27;95455.16;4992777;28;19915;-44
2023/08/19 00:47:28;;;;;;;;;;;21.40;50.70;;;17.65;95.30;95465.94;4992119;28;19913;-43
2023/08/19 00:49:55;;;;;;;;;;;21.40;50.70;;;17.63;94.89;95467.34;4992057;28;19913;-45
2023/08/19 00:52:20;;;;;;;;;;;21.40;50.80;;;17.61;95.70;95462.25;4992130;28;19937;-46
2023/08/19 00:54:47;;;;;;;;;;;21.40;50.90;;;17.55;95.36;95467.00;4992626;28;19961;-45
2023/08/19 00:57:12;;;;;;;;;;;21.30;50.90;;;17.55;95.28;95466.22;4991028;28;19909;-45
2023/08/19 00:59:38;;;;;;;;;;;21.30;51.00;;;17.50;95.65;95464.44;4986196;28;19913;-46
2023/08/19 01:02:04;;;;;;;;;;;21.30;51.10;;;17.49;95.50;95468.25;4993680;28;20556;-45
2023/08/19 01:04:30;;;;;;;;;;;21.30;51.20;;;17.44;96.20;95470.28;4992627;28;19910;-45
2023/08/19 01:07:28;;;;;;;;;;;21.20;51.20;;;17.43;95.87;95472.19;4993757;28;19910;-45
2023/08/19 01:10:10;;;;;;;;;;;21.20;51.30;;;17.44;95.72;95471.06;4993792;28;20322;-47
2023/08/19 01:12:49;;;;;;;;;;;21.20;51.40;;;17.37;95.89;95476.13;4992301;28;19940;-44
2023/08/19 01:15:25;;;;;;;;;;;21.10;51.40;;;17.37;95.40;95470.75;4992219;28;19916;-48
2023/08/19 01:17:53;;;;;;;;;;;21.10;51.50;;;17.32;95.74;95470.88;5004566;28;19913;-49
2023/08/19 01:20:21;;;;;;;;;;;21.10;51.50;;;17.28;96.14;95477.97;4988061;28;20364;-45
2023/08/19 01:23:03;;;;;;;;;;;21.10;51.60;;;17.17;96.54;95473.94;4991145;28;19909;-44
2023/08/19 01:25:31;;;;;;;;;;;21.00;51.60;;;17.11;97.20;95474.09;4992002;28;19916;-44
2023/08/19 01:28:01;;;;;;;;;;;21.00;51.70;;;17.14;97.16;95475.34;4992171;28;19910;-46
2023/08/19 01:30:28;;;;;;;;;;;21.00;51.80;;;17.08;97.52;95473.94;4991806;28;20403;-47
2023/08/19 01:32:54;;;;;;;;;;;20.90;51.80;;;17.07;97.44;95483.09;4993278;28;19909;-45
2023/08/19 01:35:20;;;;;;;;;;;20.80;51.80;;;16.94;99.25;95476.69;4992022;28;20147;-45
2023/08/19 01:37:54;;;;;;;;;;;20.80;51.90;;;16.95;99.44;95480.16;4992046;28;20384;-46
2023/08/19 01:40:22;;;;;;;;;;;20.80;52.00;;;16.97;98.70;95473.38;4992097;28;20010;-47
2023/08/19 01:42:50;;;;;;;;;;;20.80;52.10;;;16.94;98.70;95478.59;5005091;28;20269;-45
2023/08/19 01:45:18;;;;;;;;;;;20.70;52.20;;;16.90;99.19;95481.09;4992684;28;20438;-45
2023/08/19 01:47:43;;;;;;;;;;;20.70;52.30;;;16.87;99.53;95477.13;4991937;28;19917;-44
2023/08/19 01:50:09;;;;;;;;;;;20.70;52.50;;;16.88;99.44;95477.91;4992975;28;19917;-45
2023/08/19 01:52:37;;;;;;;;;;;20.60;52.60;;;16.86;99.02;95477.44;4991827;28;20067;-48
2023/08/19 01:55:03;;;;;;;;;;;20.60;52.60;;;16.87;99.19;95481.69;4991452;28;19917;-44
2023/08/19 01:57:29;;;;;;;;;;;20.70;52.60;;;16.86;99.32;95488.97;4993074;28;19916;-47
2023/08/19 01:59:55;;;;;;;;;;;20.60;52.70;;;16.88;98.79;95483.28;4991738;28;19913;-48
2023/08/19 02:02:22;;;;;;;;;;;20.60;52.70;;;16.88;98.58;95491.34;4992926;28;19990;-45
2023/08/19 02:04:48;;;;;;;;;;;20.60;52.80;;;16.87;98.93;95490.56;4991469;28;20043;-47
2023/08/19 02:07:14;;;;;;;;;;;20.60;52.80;;;16.86;99.60;95494.38;4993008;28;20008;-49
2023/08/19 02:09:41;;;;;;;;;;;20.70;52.80;;;16.86;99.98;95490.88;4990346;28;19913;-45
2023/08/19 02:12:07;;;;;;;;;;;20.60;52.80;;;16.86;100.00;95501.66;4990355;28;20368;-46
2023/08/19 02:14:34;;;;;;;;;;;20.60;52.90;;;16.79;100.00;95496.66;4991485;28;19909;-47
2023/08/19 02:16:59;;;;;;;;;;;20.60;52.90;;;16.83;100.00;95494.97;4989803;28;19913;-44
2023/08/19 02:19:25;;;;;;;;;;;20.60;53.00;;;16.88;99.50;95494.03;4990859;28;19917;-47
2023/08/19 02:21:51;;;;;;;;;;;20.60;53.00;;;16.85;99.43;95500.03;4991959;28;20291;-44
2023/08/19 02:24:17;;;;;;;;;;;20.60;53.10;;;16.77;99.73;95493.50;4994004;28;19939;-45
2023/08/19 02:26:43;;;;;;;;;;;20.60;53.10;;;16.74;99.83;95496.00;4988648;28;20499;-45
2023/08/19 02:29:09;;;;;;;;;;;20.60;53.10;;;16.70;100.00;95495.00;4975784;28;20000;-49
2023/08/19 02:31:36;;;;;;;;;;;20.50;53.10;;;16.65;100.00;95493.22;4988507;28;20415;-47
2023/08/19 02:34:03;;;;;;;;;;;20.50;53.20;;;16.61;100.00;95497.63;4992071;28;19959;-46
2023/08/19 02:36:28;;;;;;;;;;;20.50;53.20;;;16.57;100.00;95493.94;4990591;28;20011;-50
2023/08/19 02:38:54;;;;;;;;;;;20.50;53.30;;;16.58;100.00;95498.25;4991539;28;20059;-47
2023/08/19 02:41:20;;;;;;;;;;;20.40;53.30;;;16.48;100.00;95487.69;4990470;28;20275;-48
2023/08/19 02:43:46;;;;;;;;;;;20.40;53.40;;;16.45;100.00;95489.09;4991557;28;19915;-47
2023/08/19 02:46:11;;;;;;;;;;;20.30;53.40;;;16.46;100.00;95487.22;4991541;28;19910;-45
2023/08/19 02:48:37;;;;;;;;;;;20.30;53.50;;;16.39;100.00;95501.88;4990223;28;19921;-47
2023/08/19 02:51:03;;;;;;;;;;;20.30;53.60;;;16.37;100.00;95498.69;4991633;28;20442;-45
2023/08/19 02:53:29;;;;;;;;;;;20.30;53.70;;;16.37;100.00;95500.59;4990587;28;19916;-47
2023/08/19 02:55:55;;;;;;;;;;;20.20;53.70;;;16.39;100.00;95504.56;4991283;28;19917;-49
2023/08/19 02:58:21;;;;;;;;;;;20.20;53.80;;;16.35;100.00;95511.63;4990988;28;19915;-46
2023/08/19 03:00:50;;;;;;;;;;;20.20;53.90;;;16.28;100.00;95513.16;4990897;28;19928;-45
2023/08/19 03:03:17;;;;;;;;;;;20.20;54.00;;;16.30;100.00;95511.75;4991829;28;20299;-44
2023/08/19 03:05:43;;;;;;;;;;;20.20;54.10;;;16.30;100.00;95505.59;4990366;28;19910;-49
2023/08/19 03:08:10;;;;;;;;;;;20.20;54.10;;;16.26;100.00;95504.59;4991254;28;20371;-45
2023/08/19 03:10:38;;;;;;;;;;;20.10;54.20;;;16.28;100.00;95511.25;4990490;28;20016;-44
2023/08/19 03:13:06;;;;;;;;;;;20.10;54.30;;;16.26;100.00;95510.75;4991361;28;20291;-49
2023/08/19 03:15:35;;;;;;;;;;;20.10;54.30;;;16.30;100.00;95513.66;4991286;28;19916;-44
2023/08/19 03:18:01;;;;;;;;;;;20.10;54.40;;;16.25;100.00;95514.53;4989504;28;19909;-46
2023/08/19 03:20:27;;;;;;;;;;;20.10;54.40;;;16.22;100.00;95512.47;4992177;28;19982;-44
2023/08/19 03:22:53;;;;;;;;;;;20.10;54.50;;;16.19;100.00;95510.38;4993750;28;20362;-45
2023/08/19 03:25:19;;;;;;;;;;;20.00;54.50;;;16.17;100.00;95513.38;4994811;28;20000;-45
2023/08/19 03:27:45;;;;;;;;;;;20.00;54.50;;;16.15;100.00;95518.25;4994873;28;19916;-46
2023/08/19 03:30:11;;;;;;;;;;;20.00;54.60;;;16.17;100.00;95513.38;4993365;28;19921;-47
2023/08/19 03:32:37;;;;;;;;;;;20.00;54.60;;;16.18;100.00;95514.97;4994869;28;20601;-45
2023/08/19 03:35:03;;;;;;;;;;;20.00;54.70;;;16.18;100.00;95511.47;4993536;28;20008;-46
2023/08/19 03:37:29;;;;;;;;;;;20.00;54.70;;;16.18;100.00;95514.16;4994713;28;19932;-46
2023/08/19 03:39:55;;;;;;;;;;;20.00;54.80;;;16.18;100.00;95519.53;4994306;28;20360;-45
2023/08/19 03:42:21;;;;;;;;;;;20.00;54.90;;;16.17;100.00;95523.34;4993480;28;19924;-45
2023/08/19 03:44:46;;;;;;;;;;;20.00;54.90;;;16.12;100.00;95532.28;4994569;28;19917;-45
2023/08/19 03:47:13;;;;;;;;;;;20.00;54.90;;;16.09;100.00;95524.03;4993633;28;20352;-45
2023/08/19 03:49:39;;;;;;;;;;;20.00;55.00;;;16.04;100.00;95529.50;4993971;28;19932;-45
2023/08/19 03:52:09;;;;;;;;;;;19.90;55.00;;;15.98;100.00;95533.38;4994385;28;19916;-46
2023/08/19 03:54:35;;;;;;;;;;;19.90;55.00;;;16.00;100.00;95536.56;4993241;28;19916;-48
2023/08/19 03:57:01;;;;;;;;;;;19.90;55.00;;;16.01;100.00;95544.31;4993981;28;20566;-45
2023/08/19 03:59:27;;;;;;;;;;;19.80;55.10;;;16.03;100.00;95552.09;4992885;28;20360;-45
2023/08/19 04:01:53;;;;;;;;;;;19.90;55.20;;;16.07;100.00;95553.09;4993080;28;20832;-44
2023/08/19 04:04:20;;;;;;;;;;;19.90;55.20;;;16.06;100.00;95552.28;4993742;28;19996;-51
2023/08/19 04:06:46;;;;;;;;;;;19.90;55.20;;;15.99;100.00;95559.97;5009157;28;19910;-45
2023/08/19 04:09:12;;;;;;;;;;;19.90;55.20;;;15.96;100.00;95560.56;4993579;28;20398;-44
2023/08/19 04:11:38;;;;;;;;;;;19.80;55.20;;;15.96;100.00;95555.97;4992973;28;20393;-45
2023/08/19 04:14:08;;;;;;;;;;;19.80;55.30;;;15.91;100.00;95556.06;4993823;28;20296;-44
2023/08/19 04:16:36;;;;;;;;;;;19.80;55.30;;;15.85;100.00;95556.47;5007987;28;19925;-47
2023/08/19 04:19:02;;;;;;;;;;;19.80;55.30;;;15.81;100.00;95552.78;4992432;28;19916;-44
2023/08/19 04:21:28;;;;;;;;;;;19.80;55.30;;;15.80;100.00;95567.31;4994079;28;20363;-44
2023/08/19 04:23:53;;;;;;;;;;;19.70;55.40;;;15.78;100.00;95569.50;4992725;28;20466;-46
2023/08/19 04:26:19;;;;;;;;;;;19.70;55.40;;;15.75;100.00;95564.72;4993985;28;19910;-49
2023/08/19 04:28:45;;;;;;;;;;;19.70;55.40;;;15.72;100.00;95569.59;4992671;28;19918;-46
2023/08/19 04:31:12;;;;;;;;;;;19.70;55.50;;;15.70;100.00;95568.31;4993372;28;20519;-46
2023/08/19 04:33:38;;;;;;;;;;;19.60;55.50;;;15.68;100.00;95573.19;4993751;28;20522;-47
2023/08/19 04:36:04;;;;;;;;;;;19.60;55.60;;;15.70;100.00;95574.47;4991194;28;20000;-46
2023/08/19 04:38:31;;;;;;;;;;;19.60;55.60;;;15.70;100.00;95565.63;4992947;28;19917;-45
2023/08/19 04:40:59;;;;;;;;;;;19.60;55.60;;;15.70;100.00;95569.13;4992846;28;19909;-47
2023/08/19 04:43:27;;;;;;;;;;;19.60;55.70;;;15.74;100.00;95580.06;4993294;28;20358;-46
2023/08/19 04:45:54;;;;;;;;;;;19.60;55.80;;;15.71;100.00;95576.06;4993538;28;20012;-48
2023/08/19 04:48:21;;;;;;;;;;;19.70;55.80;;;15.73;100.00;95578.44;4982258;28;19916;-47
2023/08/19 04:50:49;;;;;;;;;;;19.70;55.80;;;15.81;100.00;95577.75;4993416;28;19913;-45
2023/08/19 04:53:14;;;;;;;;;;;19.70;55.90;;;15.81;100.00;95588.50;4992330;28;19952;-45
2023/08/19 04:55:40;;;;;;;;;;;19.80;55.90;;;15.85;100.00;95583.31;4993069;28;20001;-44
2023/08/19 04:58:06;;;;;;;;;;;19.80;55.90;;;15.87;100.00;95592.69;4992704;28;20252;-49
2023/08/19 05:00:32;;;;;;;;;;;19.80;55.90;;;15.90;100.00;95596.66;4992686;28;19916;-44
2023/08/19 05:02:57;;;;;;;;;;;19.90;55.90;;;16.01;100.00;95589.19;4993293;28;19920;-44
2023/08/19 05:05:24;;;;;;;;;;;19.90;55.90;;;16.11;100.00;95586.34;4984579;28;20012;-48
2023/08/19 05:07:50;;;;;;;;;;;20.00;55.90;;;16.27;100.00;95579.56;4990263;28;19913;-44
2023/08/19 05:10:15;;;;;;;;;;;20.10;55.90;;;16.48;100.00;95587.16;4992896;28;20277;-46
2023/08/19 05:12:41;;;;;;;;;;;20.30;56.00;;;16.66;100.00;95592.41;4991990;28;19916;-47
2023/08/19 05:15:09;;;;;;;;;;;20.40;55.90;;;16.86;100.00;95595.78;4992692;28;20310;-47
2023/08/19 05:17:35;;;;;;;;;;;20.50;55.90;;;17.02;99.73;95590.84;4992184;28;19971;-47
2023/08/19 05:20:01;;;;;;;;;;;20.70;55.80;;;17.14;97.85;95587.59;4992244;28;20368;-47
2023/08/19 05:22:26;;;;;;;;;;;20.90;55.70;;;17.35;96.96;95599.47;4990173;28;19913;-45
2023/08/19 05:24:52;;;;;;;;;;;21.10;55.60;;;17.57;96.47;95598.66;4992474;28;19995;-47
2023/08/19 05:27:18;;;;;;;;;;;21.30;55.50;;;17.78;95.21;95601.66;4992379;28;20111;-49
2023/08/19 05:29:44;;;;;;;;;;;21.60;55.40;;;17.98;94.01;95603.78;4991331;28;20395;-46
2023/08/19 05:32:10;;;;;;;;;;;21.80;55.20;;;18.21;92.31;95601.84;4991140;28;19916;-49
2023/08/19 05:34:35;;;;;;;;;;;22.10;55.00;;;18.47;91.36;95609.97;4992781;28;19916;-47
2023/08/19 05:37:04;;;;;;;;;;;22.50;54.80;;;18.77;90.03;95615.63;4996722;28;19920;-45
2023/08/19 05:39:30;;;;;;;;;;;22.70;54.50;;;19.06;87.22;95617.72;4991971;28;20007;-45
2023/08/19 05:41:56;;;;;;;;;;;23.10;54.40;;;19.38;83.64;95623.72;4993996;28;20055;-46
2023/08/19 05:44:22;;;;;;;;;;;23.40;54.10;;;19.72;82.90;95632.94;4991364;28;19909;-48
2023/08/19 05:46:47;;;;;;;;;;;23.70;53.80;;;20.04;81.95;95626.16;4991135;28;19920;-48
2023/08/19 05:49:13;;;;;;;;;;;24.10;53.50;;;20.33;79.00;95633.50;5001565;28;19917;-46
2023/08/19 05:51:39;;;;;;;;;;;24.40;53.10;;;20.66;76.17;95630.97;4991997;28;20040;-46
2023/08/19 05:54:05;;;;;;;;;;;24.80;52.80;;;20.98;75.23;95626.78;4990953;28;19943;-46
2023/08/19 05:56:31;;;;;;;;;;;25.10;52.40;;;21.28;73.28;95634.84;4991618;28;19918;-47
2023/08/19 05:58:57;;;;;;;;;;;25.50;52.20;;;21.56;70.65;95637.00;4990746;28;20277;-45
2023/08/19 06:01:23;;;;;;;;;;;25.80;51.80;;;21.82;67.95;95637.56;4992556;28;20257;-46
2023/08/19 06:03:48;;;;;;;;;;;26.20;51.50;;;22.08;66.24;95631.84;4991877;28;19913;-46
2023/08/19 06:06:14;;;;;;;;;;;26.60;51.10;;;22.37;66.19;95630.88;4991110;28;19920;-45
2023/08/19 06:08:40;;;;;;;;;;;27.00;50.80;;;22.66;62.62;95629.06;4991484;28;19917;-46
2023/08/19 06:11:06;;;;;;;;;;;27.30;50.40;;;22.91;61.28;95637.97;4990706;28;19945;-46
2023/08/19 06:13:33;;;;;;;;;;;27.70;50.60;;;23.17;60.55;95642.25;4991692;28;19944;-47
2023/08/19 06:16:00;;;;;;;;;;;27.90;49.50;;;23.42;59.01;95651.13;4991828;28;19909;-46
2023/08/19 06:18:26;;;;;;;;;;;28.20;49.10;;;23.56;57.69;95646.84;4990390;28;19910;-46
2023/08/19 06:20:52;;;;;;;;;;;28.50;48.80;;;23.86;56.75;95649.25;4991736;28;19978;-46
2023/08/19 06:23:19;;;;;;;;;;;28.70;48.30;;;24.08;55.40;95658.00;4991119;28;19921;-47
2023/08/19 06:25:50;;;;;;;;;;;29.00;48.00;;;24.32;54.77;95649.66;4992139;28;20279;-46
2023/08/19 06:28:18;;;;;;;;;;;29.30;47.70;;;24.56;53.82;95661.53;4991662;28;19919;-49
2023/08/19 06:30:45;;;;;;;;;;;29.50;47.30;;;24.71;55.41;95660.72;4990825;28;19921;-48
2023/08/19 06:33:14;;;;;;;;;;;29.80;46.90;;;24.92;53.46;95660.44;4991493;28;19917;-47
2023/08/19 06:35:40;;;;;;;;;;;30.00;46.60;;;25.13;52.55;95658.22;4990818;28;19916;-46
2023/08/19 06:38:20;;;;;;;;;;;30.30;46.30;;;25.34;51.64;95668.78;4991446;28;19909;-47
2023/08/19 06:41:11;;;;;;;;;;;30.60;46.00;;;25.54;50.87;95666.88;4973734;28;19917;-46
2023/08/19 06:43:41;;;;;;;;;;;30.90;45.60;;;25.79;49.90;95667.38;4990436;28;19940;-47
2023/08/19 06:46:08;;;;;;;;;;;31.20;45.20;;;26.06;49.65;95670.22;4991740;28;19910;-46
2023/08/19 06:48:35;;;;;;;;;;;31.40;44.80;;;26.31;47.96;95673.38;4990243;28;20043;-50
2023/08/19 06:51:03;;;;;;;;;;;31.70;44.50;;;26.42;47.69;95674.38;4991789;28;19913;-51
2023/08/19 06:53:29;;;;;;;;;;;31.90;44.00;;;26.55;46.79;95677.75;5000066;28;19952;-48
2023/08/19 06:57:00;;;;;;;;;;;32.00;43.50;;;26.60;46.70;95676.63;5008269;23;20034;-48
2023/08/19 06:59:38;;;;;;;;;;;32.20;43.00;;;26.87;45.98;95677.44;5012887;28;19952;-47
2023/08/19 07:02:07;;;;;;;;;;;32.40;42.60;;;27.24;45.67;95679.59;5015306;28;19948;-47
2023/08/19 07:04:35;;;;;;;;;;;32.60;42.40;;;27.59;44.91;95684.72;5012713;28;19913;-47
2023/08/19 07:07:04;;;;;;;;;;;32.80;42.20;;;27.94;44.41;95691.81;5015719;28;19915;-49
2023/08/19 07:09:31;;;;;;;;;;;33.10;42.00;;;28.26;43.72;95686.66;5027210;28;19913;-49
2023/08/19 07:11:58;;;;;;;;;;;33.40;41.70;;;28.35;43.49;95689.88;5006687;28;20000;-49
2023/08/19 07:14:26;;;;;;;;;;;33.70;41.50;;;28.47;43.32;95695.13;5011140;28;19945;-52
2023/08/19 07:16:58;;;;;;;;;;;34.00;41.10;;;28.58;43.56;95692.47;4997906;28;19909;-47
2023/08/19 07:19:51;;;;;;;;;;;34.20;41.40;;;28.72;43.33;95695.34;5015628;28;19909;-48
2023/08/19 07:22:17;;;;;;;;;;;34.50;40.50;;;29.04;42.79;95701.09;5028992;28;19913;-49
2023/08/19 07:24:44;;;;;;;;;;;34.70;40.20;;;29.28;42.22;95694.19;5034895;28;20004;-49
2023/08/19 07:27:12;;;;;;;;;;;34.90;40.00;;;29.42;41.93;95695.44;5015040;28;19909;-48
2023/08/19 07:29:38;;;;;;;;;;;35.20;39.70;;;29.65;41.13;95696.00;5029120;28;19917;-45
2023/08/19 07:32:04;;;;;;;;;;;35.40;39.30;;;29.87;40.91;95693.34;5029328;28;19916;-45
2023/08/19 07:34:30;;;;;;;;;;;35.60;38.90;;;30.22;40.04;95692.69;5005995;28;19996;-48
2023/08/19 07:36:56;;;;;;;;;;;35.80;38.60;;;30.48;39.95;95699.78;5006242;28;20000;-45
2023/08/19 07:39:23;;;;;;;;;;;36.00;38.40;;;30.48;39.40;95702.53;5027878;28;20013;-46
2023/08/19 07:41:49;;;;;;;;;;;36.20;38.20;;;30.34;40.02;95703.28;5010440;28;20533;-48
2023/08/19 07:44:14;;;;;;;;;;;36.40;37.90;;;30.11;38.96;95711.81;5004208;28;20371;-47
2023/08/19 07:46:40;;;;;;;;;;;36.50;37.60;;;30.39;38.94;95708.38;5013795;28;19916;-54
2023/08/19 07:49:06;;;;;;;;;;;36.60;37.10;;;30.57;38.80;95711.16;5014924;28;19916;-53
2023/08/19 07:51:32;;;;;;;;;;;36.70;37.00;;;30.91;38.80;95708.06;5014917;28;19915;-54
2023/08/19 07:53:58;;;;;;;;;;;36.80;36.80;;;31.03;38.81;95709.66;5005753;28;19920;-53
2023/08/19 07:56:24;;;;;;;;;;;37.00;36.70;;;31.37;38.67;95715.53;5009679;28;20398;-52
2023/08/19 07:58:49;;;;;;;;;;;37.20;36.40;;;31.56;38.10;95717.84;5015517;28;20278;-54
2023/08/19 08:01:16;;;;;;;;;;;37.40;36.30;;;31.77;37.62;95716.19;5023822;28;19913;-55
2023/08/19 08:03:42;;;;;;;;;;;37.60;36.20;;;31.82;37.31;95715.78;5014880;28;19909;-54
2023/08/19 08:06:07;;;;;;;;;;;37.70;35.80;;;31.82;37.20;95718.53;5012844;28;19909;-50
2023/08/19 08:08:33;;;;;;;;;;;37.90;35.60;;;32.12;36.04;95715.25;5001706;28;19913;-53
2023/08/19 08:10:59;;;;;;;;;;;38.10;35.30;;;32.42;36.08;95705.66;5017309;28;19923;-54
2023/08/19 08:13:25;;;;;;;;;;;38.30;35.10;;;32.52;36.36;95702.06;5016390;28;20017;-54
2023/08/19 08:15:52;;;;;;;;;;;38.30;34.70;;;32.68;34.36;95716.13;5014621;28;19916;-48
2023/08/19 08:18:18;;;;;;;;;;;38.50;34.60;;;32.89;35.47;95703.38;5023733;28;19920;-54
2023/08/19 08:20:44;;;;;;;;;;;38.70;34.40;;;32.74;34.77;95712.94;5014526;28;19909;-54
2023/08/19 08:23:10;;;;;;;;;;;38.80;34.20;;;32.82;34.61;95711.72;5008796;28;19956;-50
2023/08/19 08:25:37;;;;;;;;;;;38.90;33.90;;;33.11;33.90;95710.28;5005243;28;19909;-50
2023/08/19 08:28:03;;;;;;;;;;;39.00;33.70;;;33.10;33.43;95714.25;5013674;28;19909;-53
2023/08/19 08:30:29;;;;;;;;;;;39.20;33.60;;;33.13;33.60;95718.97;5001996;28;20392;-53
2023/08/19 08:32:54;;;;;;;;;;;39.40;33.40;;;33.32;34.29;95716.81;4997067;28;19916;-53
2023/08/19 08:35:20;;;;;;;;;;;39.50;33.10;;;33.57;33.38;95714.59;5004644;28;19916;-52
2023/08/19 08:37:46;;;;;;;;;;;39.70;33.00;;;33.69;33.40;95720.78;5013438;28;20360;-51
2023/08/19 08:40:12;;;;;;;;;;;39.80;32.60;;;33.94;33.59;95714.94;5013886;28;19916;-48
2023/08/19 08:42:38;;;;;;;;;;;39.90;32.30;;;34.26;33.98;95720.91;5012631;28;19915;-54
2023/08/19 08:45:05;;;;;;;;;;;40.00;32.10;;;34.42;32.72;95719.50;5014114;28;19996;-54
2023/08/19 08:47:32;;;;;;;;;;;40.10;32.10;;;34.45;32.23;95713.91;5012886;28;19909;-53
2023/08/19 08:49:59;;;;;;;;;;;40.30;32.00;;;34.38;32.57;95713.22;5025621;28;19928;-54
2023/08/19 08:52:25;;;;;;;;;;;40.40;31.80;;;34.74;32.42;95719.81;5041824;28;19940;-53
2023/08/19 08:54:54;;;;;;;;;;;40.50;31.40;;;35.11;31.52;95714.53;5001736;28;20352;-53
2023/08/19 08:57:20;;;;;;;;;;;40.60;31.30;;;34.97;31.28;95715.50;5013671;28;19956;-54
2023/08/19 08:59:46;;;;;;;;;;;40.80;31.20;;;34.95;31.65;95732.53;5012664;28;19909;-53
2023/08/19 09:02:13;;;;;;;;;;;41.00;31.10;;;34.83;31.16;95724.06;5013474;28;20375;-53
2023/08/19 09:04:46;;;;;;;;;;;41.20;31.00;;;34.91;30.95;95723.53;5025935;28;19910;-53
2023/08/19 09:07:37;;;;;;;;;;;41.30;30.70;;;35.02;31.17;95719.78;5006851;28;19909;-52
2023/08/19 09:10:13;;;;;;;;;;;41.50;30.50;;;35.20;31.28;95717.53;5010078;28;19967;-52
2023/08/19 09:12:43;;;;;;;;;;;41.60;30.30;;;35.45;30.98;95725.38;5023632;28;19916;-54
2023/08/19 09:15:11;;;;;;;;;;;41.70;30.00;;;35.74;30.13;95722.09;5006651;28;19955;-54
2023/08/19 09:17:39;;;;;;;;;;;41.80;30.00;;;35.96;30.04;95716.91;5003757;28;19916;-52
2023/08/19 09:20:08;;;;;;;;;;;41.90;29.80;;;36.07;29.66;95714.72;5000329;28;19909;-52
2023/08/19 09:22:33;;;;;;;;;;;42.10;29.80;;;35.80;29.86;95718.41;5024984;28;19909;-54
2023/08/19 09:25:02;;;;;;;;;;;42.20;29.50;;;36.38;29.97;95718.00;5012065;28;19909;-53
2023/08/19 09:27:31;;;;;;;;;;;42.30;29.50;;;36.91;29.46;95718.00;5013558;28;19920;-54
2023/08/19 09:29:58;;;;;;;;;;;42.50;29.50;;;36.86;29.34;95719.31;5012611;28;19913;-54
2023/08/19 09:32:33;;;;;;;;;;;42.70;29.10;;;37.07;28.92;95718.03;5025683;28;19963;-54
2023/08/19 09:35:08;;;;;;;;;;;42.70;29.00;;;36.75;28.16;95713.25;5007991;28;19917;-54
2023/08/19 09:37:36;;;;;;;;;;;43.00;29.00;;;36.76;28.80;95712.00;5014000;28;20368;-52
2023/08/19 09:40:08;;;;;;;;;;;43.10;28.90;;;36.36;28.43;95712.13;5026161;28;19909;-53
2023/08/19 09:42:37;;;;;;;;;;;43.20;28.70;;;36.35;29.06;95716.91;5023369;28;20379;-53
2023/08/19 09:45:04;;;;;;;;;;;43.20;28.60;;;36.83;28.61;95712.66;5014500;28;19962;-53
2023/08/19 09:47:50;;;;;;;;;;;43.30;28.40;;;37.10;28.56;95716.38;5044211;28;20298;-54
2023/08/19 09:50:18;;;;;;;;;;;43.30;28.30;;;36.82;28.68;95719.41;5014004;28;20387;-52
2023/08/19 09:53:00;;;;;;;;;;;43.50;28.30;;;37.26;27.87;95722.72;5013184;28;19916;-51
2023/08/19 09:55:29;;;;;;;;;;;43.50;28.10;;;37.76;26.82;95722.59;5000248;28;19921;-49
2023/08/19 09:57:56;;;;;;;;;;;43.70;28.20;;;38.16;26.69;95723.09;5012618;28;20363;-54
2023/08/19 10:00:23;;;;;;;;;;;44.00;28.10;;;38.05;25.54;95728.97;5012885;28;19909;-55
2023/08/19 10:02:49;;;;;;;;;;;44.10;27.70;;;38.28;25.68;95724.31;5015032;28;19920;-55
2023/08/19 10:05:19;;;;;;;;;;;44.20;27.60;;;38.20;26.07;95729.31;5011675;28;19909;-55
2023/08/19 10:07:59;;;;;;;;;;;44.30;27.50;;;38.39;24.72;95731.16;5003461;28;19916;-50
2023/08/19 10:10:31;;;;;;;;;;;44.50;27.30;;;38.46;25.18;95729.38;5016267;28;19924;-54
2023/08/19 10:12:57;;;;;;;;;;;44.60;27.00;;;38.79;24.37;95729.94;5001416;28;20335;-50
2023/08/19 10:15:27;;;;;;;;;;;44.80;27.00;;;38.96;25.05;95727.84;5026624;28;19917;-55
2023/08/19 10:17:58;;;;;;;;;;;45.00;26.80;;;38.86;24.67;95729.72;5007254;28;19909;-54
2023/08/19 10:20:30;;;;;;;;;;;45.10;26.70;;;38.79;24.52;95727.16;5009848;28;20062;-55
2023/08/19 10:23:02;;;;;;;;;;;45.30;26.60;;;38.55;24.99;95724.72;5036744;28;19909;-54
2023/08/19 10:25:30;;;;;;;;;;;45.40;26.50;;;39.01;25.80;95719.69;5025794;28;19909;-54
2023/08/19 10:28:30;;;;;;;;;;;45.50;26.50;;;39.25;25.00;95711.72;5007843;28;19917;-53
2023/08/19 10:31:06;;;;;;;;;;;45.70;26.30;;;39.66;23.55;95712.72;5020450;28;19921;-53
2023/08/19 10:33:44;;;;;;;;;;;45.90;26.20;;;39.98;24.06;95714.38;5008681;28;19909;-51
2023/08/19 10:36:20;;;;;;;;;;;46.20;26.20;;;40.17;22.67;95712.50;5013492;28;19908;-49
2023/08/19 10:39:00;;;;;;;;;;;46.40;25.90;;;40.58;24.00;95704.16;5018017;28;20007;-48
2023/08/19 10:41:30;;;;;;;;;;;46.80;25.80;;;40.82;22.36;95710.03;5016905;28;19909;-52
2023/08/19 10:44:12;;;;;;;;;;;47.10;25.70;;;40.87;21.88;95704.63;5014246;28;19948;-48
2023/08/19 10:46:47;;;;;;;;;;;47.50;25.50;;;40.69;21.17;95710.91;5007598;28;19955;-50
2023/08/19 10:49:19;;;;;;;;;;;47.70;25.00;;;40.83;20.82;95708.78;5003794;28;19909;-52
2023/08/19 10:52:05;;;;;;;;;;;47.90;24.80;;;40.92;21.68;95704.00;5017164;28;19931;-49
2023/08/19 10:54:35;;;;;;;;;;;48.20;24.50;;;41.11;21.75;95701.28;5007288;28;19917;-49
2023/08/19 10:57:23;;;;;;;;;;;48.40;24.30;;;41.38;21.73;95698.50;5013553;28;19999;-49
2023/08/19 10:59:58;;;;;;;;;;;48.40;24.10;;;41.61;21.69;95699.94;5015525;28;19913;-49
2023/08/19 11:02:29;;;;;;;;;;;48.70;24.20;;;41.66;22.32;95694.97;5016696;28;19909;-54
2023/08/19 11:04:57;;;;;;;;;;;48.80;23.70;;;41.42;21.55;95698.34;5013983;28;19913;-53
2023/08/19 11:07:26;;;;;;;;;;;48.90;23.50;;;41.33;21.40;95698.34;5009457;28;19909;-50
2023/08/19 11:09:56;;;;;;;;;;;48.80;24.10;;;41.73;22.04;95701.03;5016054;28;19920;-49
2023/08/19 11:12:26;;;;;;;;;;;48.90;23.60;;;41.84;21.80;95697.75;5026240;28;19909;-49
2023/08/19 11:14:55;;;;;;;;;;;49.20;23.50;;;42.19;21.35;95698.19;5009325;28;19910;-49
2023/08/19 11:17:33;;;;;;;;;;;49.40;23.50;;;42.08;20.30;95688.72;5016438;28;20307;-50
2023/08/19 11:20:11;;;;;;;;;;;49.70;23.30;;;41.95;21.07;95689.69;5003086;28;19913;-51